Rechercher aéroport 
image banner adimage banner adimage banner ad
image banner ad

CL47 - Hoag

Situé à Valley Center, United States

ICAO - CL47, IATA -

Données fournies par Airmate  

Information générale

Coordonnées: N33°14'2" W116°58'7"
Élévation : 1650 feet MSL.
Variation magnétique : 13° East
Voir autres Aéroports à California

Données opérationnelles

Special qualification required
Heure actuelle UTC:
Heure actuelle locale:
Météo à : KRNM - Ramona ( 22 km )
METAR: KRNM 231353Z AUTO 00000KT 10SM CLR 16/09 A2995 RMK AO2 SLP126 T01610089
Voir NOTAMs / SUP AIP / TFR affectant cet aéroport [VIEW]
Fréquences de communication: [VIEW]

Pistes:

Coordonnées de l'aéroport

Adresse: Valley Center United States

Vue satellite de CL47